createdAt,value
2022-12-19T00:00:51.061Z,13.60000038
2022-12-19T00:01:51.700Z,13.69999981
2022-12-19T00:02:52.351Z,14.19999981
2022-12-19T00:03:52.656Z,13.80000019
2022-12-19T00:04:53.171Z,13.19999981
2022-12-19T00:05:53.776Z,14.39999962
2022-12-19T00:06:54.332Z,14
2022-12-19T00:07:55.675Z,14.19999981
2022-12-19T00:08:57.057Z,14.10000038
2022-12-19T00:09:57.941Z,14.19999981
2022-12-19T00:10:58.535Z,14.5
2022-12-19T00:11:59.803Z,15.80000019
2022-12-19T00:13:31.215Z,14.60000038
2022-12-19T00:14:31.124Z,13.80000019
2022-12-19T00:15:31.619Z,14.19999981
2022-12-19T00:16:32.180Z,15.89999962
2022-12-19T00:17:32.712Z,14.10000038
2022-12-19T00:18:34.062Z,14.39999962
2022-12-19T00:19:34.597Z,14
2022-12-19T00:20:35.105Z,15.10000038
2022-12-19T00:21:35.736Z,15.19999981
2022-12-19T00:22:37.309Z,14
2022-12-19T00:23:37.949Z,14.39999962
2022-12-19T00:24:38.373Z,14.5
2022-12-19T00:25:39.660Z,14.10000038
2022-12-19T00:26:39.398Z,14.30000019
2022-12-19T00:27:40.141Z,15
2022-12-19T00:28:41.626Z,13.89999962
2022-12-19T00:29:42.236Z,14.30000019
2022-12-19T00:30:42.715Z,15.19999981
2022-12-19T00:31:43.369Z,14.19999981
2022-12-19T00:32:43.784Z,14.5
2022-12-19T00:33:44.346Z,13.80000019
2022-12-19T00:34:45.002Z,13.80000019
2022-12-19T00:35:45.529Z,14.10000038
2022-12-19T00:36:46.143Z,14.10000038
2022-12-19T00:37:49.191Z,14.30000019
2022-12-19T00:38:48.127Z,13.89999962
2022-12-19T00:39:48.782Z,13.80000019
2022-12-19T00:40:49.334Z,14.10000038
2022-12-19T00:41:49.863Z,14
2022-12-19T00:42:53.527Z,14.80000019
2022-12-19T00:43:50.953Z,13.80000019
2022-12-19T00:44:51.561Z,13.60000038
2022-12-19T00:45:52.886Z,13.69999981
2022-12-19T00:46:53.489Z,14.30000019
2022-12-19T00:47:54.782Z,15
2022-12-19T00:48:55.291Z,14.19999981
2022-12-19T00:49:55.979Z,14.30000019
2022-12-19T00:50:56.519Z,13.69999981
2022-12-19T00:51:57.175Z,14
2022-12-19T00:52:57.894Z,14.39999962
2022-12-19T00:53:58.482Z,14
2022-12-19T00:54:59.494Z,13.69999981
2022-12-19T00:56:30.398Z,12.60000038
2022-12-19T00:57:31.103Z,13.80000019
2022-12-19T00:58:35.445Z,13.5
2022-12-19T00:59:33.230Z,13.30000019
2022-12-19T01:00:33.784Z,13.10000038
2022-12-19T01:01:34.577Z,14
2022-12-19T01:02:35.195Z,14.10000038
2022-12-19T01:03:36.604Z,13.60000038
2022-12-19T01:04:41.518Z,14.19999981
2022-12-19T01:05:37.721Z,12.80000019
2022-12-19T01:06:38.268Z,13.30000019
2022-12-19T01:07:38.923Z,13.10000038
2022-12-19T01:08:40.081Z,13
2022-12-19T01:09:40.793Z,13
2022-12-19T01:10:41.322Z,13.80000019
2022-12-19T01:11:41.958Z,13.39999962
2022-12-19T01:12:43.220Z,13.5
2022-12-19T01:13:43.754Z,13.89999962
2022-12-19T01:14:44.427Z,12.89999962
2022-12-19T01:15:44.939Z,13.89999962
2022-12-19T01:16:45.448Z,13.60000038
2022-12-19T01:17:46.024Z,13
2022-12-19T01:18:47.153Z,14.89999962
2022-12-19T01:19:47.832Z,14.10000038
2022-12-19T01:20:48.388Z,13.69999981
2022-12-19T01:21:48.917Z,13.60000038
2022-12-19T01:22:49.491Z,13.39999962
2022-12-19T01:23:49.998Z,14.5
2022-12-19T01:24:50.613Z,14
2022-12-19T01:25:51.162Z,13.19999981
2022-12-19T01:26:51.866Z,13.10000038
2022-12-19T01:27:52.492Z,14.60000038
2022-12-19T01:28:53.622Z,14.30000019
2022-12-19T01:29:54.229Z,13.30000019
2022-12-19T01:30:54.798Z,13.80000019
2022-12-19T01:31:55.538Z,13.39999962
2022-12-19T01:32:55.998Z,13.69999981
2022-12-19T01:33:56.581Z,13.60000038
2022-12-19T01:34:57.110Z,14.89999962
2022-12-19T01:35:58.769Z,13.5
2022-12-19T01:37:29.836Z,14.39999962
2022-12-19T01:38:31.320Z,13.69999981
2022-12-19T01:39:31.962Z,14.10000038
2022-12-19T01:40:32.468Z,14.39999962
2022-12-19T01:41:33.035Z,14.10000038
2022-12-19T01:42:33.692Z,13.89999962
2022-12-19T01:43:34.245Z,15.60000038
2022-12-19T01:44:34.944Z,13.60000038
2022-12-19T01:45:37.469Z,13.5
2022-12-19T01:46:36.120Z,13.30000019
2022-12-19T01:47:37.653Z,14.69999981
2022-12-19T01:48:38.325Z,13.60000038
2022-12-19T01:49:38.932Z,14
2022-12-19T01:50:41.427Z,13.10000038
2022-12-19T01:51:40.647Z,13.39999962
2022-12-19T01:52:41.168Z,13
2022-12-19T01:53:48.406Z,12.30000019
2022-12-19T01:54:42.557Z,13.5
2022-12-19T01:55:43.141Z,13.19999981
2022-12-19T01:56:43.614Z,14.5
2022-12-19T01:57:44.143Z,13.60000038
2022-12-19T01:58:45.760Z,14.19999981
2022-12-19T01:59:46.351Z,13.89999962
2022-12-19T02:00:47.123Z,13.39999962
2022-12-19T02:01:51.849Z,13.89999962
2022-12-19T02:02:48.314Z,15.30000019
2022-12-19T02:03:48.690Z,13.30000019
2022-12-19T02:04:49.818Z,15
2022-12-19T02:05:50.452Z,14.39999962
2022-12-19T02:06:50.986Z,13.39999962
2022-12-19T02:07:51.576Z,14
2022-12-19T02:08:53.019Z,13.5
2022-12-19T02:09:57.288Z,13.80000019
2022-12-19T02:10:55.015Z,13.60000038
2022-12-19T02:11:55.530Z,14.60000038
2022-12-19T02:12:56.183Z,14.39999962
2022-12-19T02:13:56.697Z,14.10000038
2022-12-19T02:15:00.536Z,15.60000038
2022-12-19T02:16:29.014Z,14.39999962
2022-12-19T02:17:30.049Z,13.30000019
2022-12-19T02:18:31.330Z,13.80000019
2022-12-19T02:19:31.842Z,13.80000019
2022-12-19T02:20:32.437Z,14.10000038
2022-12-19T02:21:33.025Z,14
2022-12-19T02:22:33.604Z,14.80000019
2022-12-19T02:23:34.227Z,13.69999981
2022-12-19T02:24:34.829Z,13.80000019
2022-12-19T02:25:35.280Z,14.10000038
2022-12-19T02:26:35.920Z,14.80000019
2022-12-19T02:27:40.145Z,13.89999962
2022-12-19T02:28:37.884Z,14.69999981
2022-12-19T02:29:38.489Z,13.89999962
2022-12-19T02:30:38.996Z,14
2022-12-19T02:31:39.559Z,13.69999981
2022-12-19T02:32:40.017Z,14.5
2022-12-19T02:33:40.709Z,14.30000019
2022-12-19T02:34:44.369Z,14
2022-12-19T02:35:41.831Z,12.89999962
2022-12-19T02:36:44.423Z,14.5
2022-12-19T02:37:43.695Z,14.39999962
2022-12-19T02:38:44.855Z,13.5
2022-12-19T02:39:45.481Z,14.30000019
2022-12-19T02:40:46.008Z,13.39999962
2022-12-19T02:41:46.682Z,14.5
2022-12-19T02:42:47.156Z,14.80000019
2022-12-19T02:43:49.052Z,13.69999981
2022-12-19T02:44:48.307Z,13.69999981
2022-12-19T02:45:48.996Z,13.80000019
2022-12-19T02:46:49.557Z,14.5
2022-12-19T02:47:50.055Z,14.30000019
2022-12-19T02:48:51.331Z,14
2022-12-19T02:49:52.025Z,14.60000038
2022-12-19T02:50:52.378Z,14.39999962
2022-12-19T02:51:53.091Z,13.69999981
2022-12-19T02:52:53.651Z,15.10000038
2022-12-19T02:53:54.185Z,13.89999962
2022-12-19T02:54:54.747Z,14.19999981
2022-12-19T02:55:55.266Z,13.60000038
2022-12-19T02:56:56.734Z,12.89999962
2022-12-19T02:57:57.524Z,14.39999962
2022-12-19T02:59:29.160Z,13.5
2022-12-19T03:00:29.636Z,13.19999981
2022-12-19T03:01:30.314Z,14.30000019
2022-12-19T03:02:30.874Z,13.80000019
2022-12-19T03:03:31.285Z,13
2022-12-19T03:04:31.911Z,13.19999981
2022-12-19T03:05:32.468Z,13.89999962
2022-12-19T03:06:33.034Z,14.5
2022-12-19T03:07:33.611Z,14.80000019
2022-12-19T03:08:35.122Z,15.10000038
2022-12-19T03:09:36.724Z,13.30000019
2022-12-19T03:10:37.273Z,13
2022-12-19T03:11:37.850Z,12.89999962
2022-12-19T03:12:38.412Z,13.19999981
2022-12-19T03:13:38.896Z,12.5
2022-12-19T03:14:39.566Z,13.5
2022-12-19T03:15:40.118Z,13.10000038
2022-12-19T03:16:41.746Z,13.89999962
2022-12-19T03:17:42.295Z,13.19999981
2022-12-19T03:18:42.870Z,14
2022-12-19T03:19:44.096Z,13.60000038
2022-12-19T03:20:44.646Z,13.10000038
2022-12-19T03:21:45.260Z,13.39999962
2022-12-19T03:22:45.853Z,13.69999981
2022-12-19T03:23:46.295Z,13.60000038
2022-12-19T03:24:46.912Z,13.5
2022-12-19T03:25:47.412Z,13.19999981
2022-12-19T03:26:48.088Z,13.60000038
2022-12-19T03:27:48.690Z,14
2022-12-19T03:28:49.798Z,14.10000038
2022-12-19T03:29:50.399Z,13.10000038
2022-12-19T03:30:51.882Z,13.39999962
2022-12-19T03:31:52.388Z,13.60000038
2022-12-19T03:32:53.045Z,12.5
2022-12-19T03:33:53.591Z,14.19999981
2022-12-19T03:34:54.219Z,13.39999962
2022-12-19T03:35:54.734Z,13.60000038
2022-12-19T03:36:55.292Z,14.10000038
2022-12-19T03:37:55.930Z,14.39999962
2022-12-19T03:38:57.673Z,14.39999962
2022-12-19T03:40:28.595Z,14.19999981
2022-12-19T03:41:29.102Z,14.19999981
2022-12-19T03:42:29.677Z,13.60000038
2022-12-19T03:43:30.193Z,14.10000038
2022-12-19T03:44:30.911Z,13
2022-12-19T03:45:32.309Z,13.60000038
2022-12-19T03:46:32.939Z,15
2022-12-19T03:47:33.449Z,13.69999981
2022-12-19T03:48:34.012Z,13.5
2022-12-19T03:49:35.221Z,13.5
2022-12-19T03:50:35.811Z,12.89999962
2022-12-19T03:51:36.403Z,13.69999981
2022-12-19T03:52:36.931Z,13.5
2022-12-19T03:53:37.537Z,14.39999962
2022-12-19T03:54:38.067Z,13.10000038
2022-12-19T03:55:38.628Z,13.60000038
2022-12-19T03:56:40.321Z,12.69999981
2022-12-19T03:57:40.878Z,13.39999962
2022-12-19T03:58:41.568Z,13.30000019
2022-12-19T03:59:42.528Z,13.80000019
2022-12-19T04:00:43.077Z,13.89999962
2022-12-19T04:01:43.804Z,14.39999962
2022-12-19T04:02:44.365Z,14.5
2022-12-19T04:03:44.998Z,14.39999962
2022-12-19T04:04:45.438Z,14
2022-12-19T04:05:46.064Z,13.5
2022-12-19T04:06:46.599Z,13.30000019
2022-12-19T04:07:47.208Z,13.60000038
2022-12-19T04:08:47.823Z,14.19999981
2022-12-19T04:09:49.090Z,13.69999981
2022-12-19T04:10:49.676Z,14.5
2022-12-19T04:11:50.217Z,13.60000038
2022-12-19T04:12:50.724Z,13.30000019
2022-12-19T04:13:51.477Z,13.89999962
2022-12-19T04:14:52.048Z,14.10000038
2022-12-19T04:15:52.778Z,14.10000038
2022-12-19T04:16:53.790Z,14.10000038
2022-12-19T04:17:54.295Z,13.60000038
2022-12-19T04:18:55.007Z,14.39999962
2022-12-19T04:19:56.090Z,14.19999981
2022-12-19T04:20:57.470Z,14.80000019
2022-12-19T04:22:28.284Z,13.80000019
2022-12-19T04:23:28.918Z,15.10000038
2022-12-19T04:24:29.453Z,14.69999981
2022-12-19T04:25:30.131Z,14.19999981
2022-12-19T04:26:30.691Z,13.89999962
2022-12-19T04:27:31.309Z,14.5
2022-12-19T04:28:31.947Z,14.30000019
2022-12-19T04:29:33.426Z,16.29999924
2022-12-19T04:30:36.705Z,14.19999981
2022-12-19T04:31:34.596Z,15.10000038
2022-12-19T04:32:35.763Z,14
2022-12-19T04:33:36.274Z,13.89999962
2022-12-19T04:34:41.397Z,16.10000038
2022-12-19T04:35:37.412Z,14.89999962
2022-12-19T04:36:37.960Z,13.60000038
2022-12-19T04:37:39.226Z,13.5
2022-12-19T04:38:39.878Z,13.69999981
2022-12-19T04:39:41.314Z,14.5
2022-12-19T04:40:42.018Z,13
2022-12-19T04:41:42.423Z,13.69999981
2022-12-19T04:42:43.165Z,15
2022-12-19T04:43:43.755Z,14.39999962
2022-12-19T04:44:44.475Z,13.30000019
2022-12-19T04:45:45.013Z,12.69999981
2022-12-19T04:46:46.157Z,13.89999962
2022-12-19T04:47:46.619Z,13.19999981
2022-12-19T04:48:47.245Z,13.30000019
2022-12-19T04:49:48.863Z,13.39999962
2022-12-19T04:50:49.405Z,13.69999981
2022-12-19T04:51:50.028Z,12.60000038
2022-12-19T04:52:55.644Z,14
2022-12-19T04:53:51.155Z,13
2022-12-19T04:54:51.849Z,14.5
2022-12-19T04:55:52.449Z,12.89999962
2022-12-19T04:56:53.032Z,13.30000019
2022-12-19T04:57:54.557Z,13.10000038
2022-12-19T04:58:55.175Z,12.80000019
2022-12-19T04:59:56.410Z,13.30000019
2022-12-19T05:01:27.836Z,13.39999962
2022-12-19T05:02:28.451Z,14
2022-12-19T05:03:28.976Z,13.39999962
2022-12-19T05:04:29.407Z,14.10000038
2022-12-19T05:05:30.027Z,13.19999981
2022-12-19T05:06:30.579Z,14.60000038
2022-12-19T05:07:31.130Z,13.19999981
2022-12-19T05:08:31.755Z,14
2022-12-19T05:09:32.769Z,13
2022-12-19T05:10:33.303Z,12.80000019
2022-12-19T05:11:33.852Z,13.10000038
2022-12-19T05:12:34.485Z,13.30000019
2022-12-19T05:13:35.069Z,13.10000038
2022-12-19T05:14:35.614Z,13.80000019
2022-12-19T05:15:36.272Z,13
2022-12-19T05:16:36.684Z,13.60000038
2022-12-19T05:17:37.294Z,13.89999962
2022-12-19T05:18:37.902Z,14.19999981
2022-12-19T05:19:39.298Z,13.30000019
2022-12-19T05:20:40.042Z,12.69999981
2022-12-19T05:21:40.483Z,13.69999981
2022-12-19T05:22:41.056Z,12.5
2022-12-19T05:23:41.556Z,13.60000038
2022-12-19T05:24:43.031Z,12.60000038
2022-12-19T05:25:43.715Z,13
2022-12-19T05:26:44.167Z,13.89999962
2022-12-19T05:27:44.762Z,14.30000019
2022-12-19T05:28:45.284Z,13.5
2022-12-19T05:29:45.777Z,12.60000038
2022-12-19T05:30:51.963Z,13.19999981
2022-12-19T05:31:47.602Z,14.10000038
2022-12-19T05:32:48.090Z,13
2022-12-19T05:33:48.594Z,14
2022-12-19T05:34:49.146Z,12.80000019
2022-12-19T05:35:49.707Z,13.30000019
2022-12-19T05:36:50.214Z,12.80000019
2022-12-19T05:37:50.823Z,13.39999962
2022-12-19T05:38:51.329Z,14.10000038
2022-12-19T05:39:51.818Z,12.30000019
2022-12-19T05:40:52.424Z,14.30000019
2022-12-19T05:41:53.581Z,13.5
2022-12-19T05:42:54.240Z,12.80000019
2022-12-19T05:43:54.747Z,13.30000019
2022-12-19T05:44:55.250Z,12.89999962
2022-12-19T05:45:56.215Z,14.10000038
2022-12-19T05:47:27.916Z,13.10000038
2022-12-19T05:48:28.440Z,15.5
2022-12-19T05:49:29.062Z,14.30000019
2022-12-19T05:50:30.535Z,14.60000038
2022-12-19T05:51:31.123Z,13.30000019
2022-12-19T05:52:31.587Z,13.39999962
2022-12-19T05:53:32.078Z,13.60000038
2022-12-19T05:54:32.593Z,13.80000019
2022-12-19T05:55:33.082Z,14.5
2022-12-19T05:56:33.734Z,13.89999962
2022-12-19T05:57:34.198Z,14.69999981
2022-12-19T05:58:34.793Z,13.60000038
2022-12-19T05:59:35.348Z,14.60000038
2022-12-19T06:00:36.510Z,14.5
2022-12-19T06:01:37.361Z,13.89999962
2022-12-19T06:02:37.795Z,13.5
2022-12-19T06:03:38.253Z,13.89999962
2022-12-19T06:04:38.715Z,13.69999981
2022-12-19T06:05:39.219Z,13.89999962
2022-12-19T06:06:39.788Z,14.10000038
2022-12-19T06:07:40.284Z,14.69999981
2022-12-19T06:08:40.832Z,14.89999962
2022-12-19T06:09:41.326Z,13.39999962
2022-12-19T06:10:42.601Z,13.39999962
2022-12-19T06:11:43.259Z,13.89999962
2022-12-19T06:12:43.702Z,14.30000019
2022-12-19T06:13:44.344Z,17.70000076
2022-12-19T06:14:44.802Z,15.39999962
2022-12-19T06:15:45.382Z,22.29999924
2022-12-19T06:16:46.516Z,18.79999924
2022-12-19T06:17:46.991Z,16.89999962
2022-12-19T06:18:47.542Z,14.80000019
2022-12-19T06:19:48.033Z,14.5
2022-12-19T06:20:49.599Z,13.60000038
2022-12-19T06:21:50.139Z,13.60000038
2022-12-19T06:22:50.713Z,13.10000038
2022-12-19T06:23:51.250Z,13.60000038
2022-12-19T06:24:51.732Z,18.70000076
2022-12-19T06:25:52.345Z,22.89999962
2022-12-19T06:26:52.874Z,19.20000076
2022-12-19T06:27:53.341Z,15.19999981
2022-12-19T06:28:53.878Z,16.10000038
2022-12-19T06:29:54.466Z,14.5
2022-12-19T06:31:26.343Z,16.29999924
2022-12-19T06:32:26.852Z,16.10000038
2022-12-19T06:33:27.597Z,14.89999962
2022-12-19T06:35:02.150Z,14.60000038
2022-12-19T06:35:28.697Z,14.89999962
2022-12-19T06:36:29.202Z,17.60000038
2022-12-19T06:37:29.828Z,21
2022-12-19T06:38:30.266Z,19.5
2022-12-19T06:39:30.862Z,17.20000076
2022-12-19T06:40:32.020Z,14.69999981
2022-12-19T06:41:33.510Z,14.89999962
2022-12-19T06:42:34.138Z,15.10000038
2022-12-19T06:43:34.576Z,14.69999981
2022-12-19T06:44:35.189Z,13.5
2022-12-19T06:45:35.739Z,14.30000019
2022-12-19T06:46:36.177Z,14.69999981
2022-12-19T06:47:36.743Z,13.69999981
2022-12-19T06:48:37.775Z,14.39999962
2022-12-19T06:49:38.358Z,13.5
2022-12-19T06:50:39.766Z,14.30000019
2022-12-19T06:51:40.247Z,13.5
2022-12-19T06:52:40.924Z,14.80000019
2022-12-19T06:53:41.464Z,13.89999962
2022-12-19T06:54:42.111Z,13.69999981
2022-12-19T06:55:42.631Z,13.5
2022-12-19T06:56:43.113Z,16.20000076
2022-12-19T06:57:44.305Z,19
2022-12-19T06:58:44.753Z,16.60000038
2022-12-19T06:59:45.363Z,16.29999924
2022-12-19T07:00:45.915Z,30.39999962
2022-12-19T07:01:47.201Z,30.89999962
2022-12-19T07:02:47.767Z,15.60000038
2022-12-19T07:03:48.107Z,15.89999962
2022-12-19T07:04:48.631Z,14.69999981
2022-12-19T07:05:49.114Z,15.39999962
2022-12-19T07:06:49.760Z,14.39999962
2022-12-19T07:07:50.266Z,15.39999962
2022-12-19T07:08:50.882Z,14.80000019
2022-12-19T07:09:51.393Z,14.5
2022-12-19T07:10:52.600Z,15
2022-12-19T07:11:53.096Z,14.60000038
2022-12-19T07:12:53.669Z,13.5
2022-12-19T07:13:54.269Z,13.69999981
2022-12-19T07:14:55.213Z,13.30000019
2022-12-19T07:16:26.114Z,15.10000038
2022-12-19T07:17:26.599Z,14.39999962
2022-12-19T07:18:27.243Z,13.69999981
2022-12-19T07:19:28.519Z,15.10000038
2022-12-19T07:20:29.800Z,13.89999962
2022-12-19T07:21:30.270Z,13.89999962
2022-12-19T07:22:30.831Z,14.69999981
2022-12-19T07:23:31.439Z,15.19999981
2022-12-19T07:24:31.931Z,14.10000038
2022-12-19T07:25:32.508Z,14.5
2022-12-19T07:26:33.007Z,13.60000038
2022-12-19T07:27:35.862Z,14
2022-12-19T07:28:34.517Z,14.69999981
2022-12-19T07:29:35.024Z,14.69999981
2022-12-19T07:30:36.344Z,14.5
2022-12-19T07:31:36.968Z,13.89999962
2022-12-19T07:32:37.437Z,14.10000038
2022-12-19T07:33:38.049Z,14.10000038
2022-12-19T07:34:38.586Z,14.10000038
2022-12-19T07:35:39.094Z,13.39999962
2022-12-19T07:36:39.571Z,14.30000019
2022-12-19T07:37:40.101Z,16.60000038
2022-12-19T07:38:40.772Z,16.5
2022-12-19T07:39:41.244Z,14.60000038
2022-12-19T07:40:42.373Z,14.5
2022-12-19T07:41:42.963Z,14.5
2022-12-19T07:42:43.456Z,14.30000019
2022-12-19T07:43:44.097Z,13.69999981
2022-12-19T07:44:44.639Z,13.39999962
2022-12-19T07:45:45.306Z,12.60000038
2022-12-19T07:46:45.665Z,13.10000038
2022-12-19T07:47:46.190Z,15
2022-12-19T07:48:46.735Z,15.60000038
2022-12-19T07:49:47.218Z,13.80000019
2022-12-19T07:50:48.756Z,14.39999962
2022-12-19T07:51:49.239Z,12.89999962
2022-12-19T07:52:49.816Z,13.5
2022-12-19T07:53:51.053Z,13.10000038
2022-12-19T07:54:51.499Z,15
2022-12-19T07:55:52.060Z,13.19999981
2022-12-19T07:56:52.581Z,13.80000019
2022-12-19T07:57:53.125Z,13.89999962
2022-12-19T07:58:53.719Z,14.5
2022-12-19T07:59:54.661Z,14.89999962
2022-12-19T08:01:28.354Z,17.79999924
2022-12-19T08:02:27.089Z,16.20000076
2022-12-19T08:03:27.924Z,16.29999924
2022-12-19T08:04:28.385Z,20.29999924
2022-12-19T08:05:28.902Z,21.5
2022-12-19T08:06:29.448Z,19.79999924
2022-12-19T08:07:29.930Z,16.70000076
2022-12-19T08:08:30.508Z,14.19999981
2022-12-19T08:09:30.974Z,16
2022-12-19T08:10:31.533Z,15.89999962
2022-12-19T08:11:32.015Z,13.89999962
2022-12-19T08:12:32.573Z,15
2022-12-19T08:13:38.673Z,15.60000038
2022-12-19T08:14:33.715Z,17.10000038
2022-12-19T08:15:34.278Z,15.30000019
2022-12-19T08:16:49.408Z,16.70000076
2022-12-19T08:17:35.478Z,16.29999924
2022-12-19T08:18:35.903Z,12.10000038
2022-12-19T08:19:36.415Z,13.19999981
2022-12-19T08:20:37.025Z,11.69999981
2022-12-19T08:21:38.497Z,13.19999981
2022-12-19T08:22:39.053Z,12.69999981
2022-12-19T08:23:39.584Z,17.39999962
2022-12-19T08:24:40.160Z,16.79999924
2022-12-19T08:25:40.646Z,14.19999981
2022-12-19T08:26:46.032Z,14.5
2022-12-19T08:27:41.790Z,13.5
2022-12-19T08:28:43.007Z,14
2022-12-19T08:29:43.529Z,14
2022-12-19T08:30:44.225Z,14
2022-12-19T08:31:45.518Z,14.5
2022-12-19T08:32:46.112Z,12.80000019
2022-12-19T08:33:46.648Z,13
2022-12-19T08:34:47.255Z,13.39999962
2022-12-19T08:35:47.743Z,14.19999981
2022-12-19T08:36:48.299Z,14.10000038
2022-12-19T08:37:49.499Z,13.19999981
2022-12-19T08:38:50.025Z,15.19999981
2022-12-19T08:39:50.672Z,14.89999962
2022-12-19T08:40:51.147Z,13.39999962
2022-12-19T08:41:52.610Z,13.39999962
2022-12-19T08:42:53.172Z,12.89999962
2022-12-19T08:43:54.173Z,14.19999981
2022-12-19T08:45:24.979Z,14.39999962
2022-12-19T08:46:25.619Z,13.89999962
2022-12-19T08:47:26.147Z,12.89999962
2022-12-19T08:48:26.724Z,12.10000038
2022-12-19T08:49:27.356Z,12.89999962
2022-12-19T08:50:27.898Z,13.30000019
2022-12-19T08:51:29.189Z,11.10000038
2022-12-19T08:52:29.608Z,9.699999809
2022-12-19T08:53:30.106Z,11.60000038
2022-12-19T08:54:30.619Z,11.69999981
2022-12-19T08:55:31.224Z,10.19999981
2022-12-19T08:56:32.702Z,9.699999809
2022-12-19T08:57:33.263Z,11.5
2022-12-19T08:58:33.938Z,13.39999962
2022-12-19T08:59:34.485Z,12.39999962
2022-12-19T09:00:35.052Z,10.19999981
2022-12-19T09:01:36.718Z,9.699999809
2022-12-19T09:02:37.625Z,8.600000381
2022-12-19T09:04:10.008Z,8.699999809
2022-12-19T09:05:57.753Z,8.600000381
2022-12-19T09:06:01.422Z,10
2022-12-19T09:06:39.742Z,8.899999619
2022-12-19T09:07:41.066Z,8.699999809
2022-12-19T09:08:41.813Z,9.699999809
2022-12-19T09:09:42.377Z,9.699999809
2022-12-19T09:10:42.979Z,8.899999619
2022-12-19T09:11:47.372Z,9.899999619
2022-12-19T09:12:44.612Z,9.600000381
2022-12-19T09:13:45.265Z,8.699999809
2022-12-19T09:14:45.835Z,10.10000038
2022-12-19T09:15:46.445Z,9.899999619
2022-12-19T09:16:47.068Z,10.39999962
2022-12-19T09:17:47.548Z,10.19999981
2022-12-19T09:18:48.972Z,10.60000038
2022-12-19T09:19:48.741Z,10.19999981
2022-12-19T09:20:49.282Z,10.69999981
2022-12-19T09:21:50.532Z,10.39999962
2022-12-19T09:22:51.181Z,9.899999619
2022-12-19T09:23:51.811Z,10.5
2022-12-19T09:24:52.471Z,10.30000019
2022-12-19T09:25:53.067Z,9.5
2022-12-19T09:27:24.038Z,10.39999962
2022-12-19T09:28:27.606Z,10.30000019
2022-12-19T09:29:25.330Z,9.899999619
2022-12-19T09:30:26.793Z,9.899999619
2022-12-19T09:31:29.403Z,10.19999981
2022-12-19T09:32:29.809Z,9.899999619
2022-12-19T09:33:30.446Z,9
2022-12-19T09:34:33.479Z,10.89999962
2022-12-19T09:35:31.699Z,9.399999619
2022-12-19T09:36:32.790Z,8.899999619
2022-12-19T09:37:33.234Z,10
2022-12-19T09:38:34.666Z,9.899999619
2022-12-19T09:39:34.461Z,9.600000381
2022-12-19T09:40:36.316Z,9.199999809
2022-12-19T09:41:37.811Z,8.300000191
2022-12-19T09:42:41.296Z,8.600000381
2022-12-19T09:43:41.456Z,8.600000381
2022-12-19T09:44:39.275Z,9.300000191
2022-12-19T09:45:40.025Z,9
2022-12-19T09:46:40.669Z,8.5
2022-12-19T09:47:41.092Z,8.100000381
2022-12-19T09:48:41.589Z,8.899999619
2022-12-19T09:49:42.205Z,8.699999809
2022-12-19T09:50:42.846Z,8.899999619
2022-12-19T09:51:44.288Z,8.899999619
2022-12-19T09:52:44.862Z,10.30000019
2022-12-19T09:53:45.612Z,8.300000191
2022-12-19T09:54:46.646Z,8.300000191
2022-12-19T09:55:47.275Z,8.800000191
2022-12-19T09:56:47.986Z,9
2022-12-19T09:57:49.174Z,8.5
2022-12-19T09:58:49.707Z,9
2022-12-19T09:59:50.469Z,8.600000381
2022-12-19T10:00:55.343Z,8.399999619
2022-12-19T10:01:52.309Z,9.699999809
2022-12-19T10:02:53.660Z,8.899999619
2022-12-19T10:04:24.102Z,9
2022-12-19T10:05:38.823Z,8.199999809
2022-12-19T10:07:16.373Z,8
2022-12-19T10:07:49.830Z,8.100000381
2022-12-19T10:08:27.720Z,7.699999809
2022-12-19T10:12:11.822Z,8.699999809
2022-12-19T10:12:35.371Z,7.300000191
2022-12-19T10:12:40.177Z,7.800000191
2022-12-19T10:12:42.400Z,7.699999809
2022-12-19T10:13:31.491Z,8.300000191
2022-12-19T10:14:32.147Z,8
2022-12-19T10:15:32.690Z,8.399999619
2022-12-19T10:16:33.230Z,6.800000191
2022-12-19T10:17:33.790Z,7.900000095
2022-12-19T10:18:34.317Z,7
2022-12-19T10:19:36.335Z,7
2022-12-19T10:20:36.848Z,7.699999809
2022-12-19T10:22:15.844Z,8.199999809
2022-12-19T10:22:38.757Z,6.800000191
2022-12-19T10:23:39.434Z,6.900000095
2022-12-19T10:24:40.648Z,7.599999905
2022-12-19T10:25:41.286Z,6.400000095
2022-12-19T10:26:42.503Z,6.599999905
2022-12-19T10:27:44.211Z,6.699999809
2022-12-19T10:28:43.727Z,6.5
2022-12-19T10:29:44.357Z,6.099999905
2022-12-19T10:30:45.892Z,6.800000191
2022-12-19T10:31:46.327Z,6.400000095
2022-12-19T10:32:47.815Z,6.099999905
2022-12-19T10:33:48.372Z,6.400000095
2022-12-19T10:34:48.846Z,7
2022-12-19T10:35:49.529Z,6.5
2022-12-19T10:37:52.148Z,6.599999905
2022-12-19T10:39:23.323Z,6
2022-12-19T10:40:28.356Z,6.400000095
2022-12-19T10:41:24.428Z,6.699999809
2022-12-19T10:42:25.497Z,6.599999905
2022-12-19T10:43:33.577Z,6
2022-12-19T10:44:26.697Z,6.199999809
2022-12-19T10:45:27.283Z,7.300000191
2022-12-19T10:46:28.014Z,6.5
2022-12-19T10:47:28.531Z,6.099999905
2022-12-19T10:48:30.841Z,6.300000191
2022-12-19T10:49:29.480Z,6
2022-12-19T10:50:30.708Z,6.800000191
2022-12-19T10:51:31.415Z,5.800000191
2022-12-19T10:52:32.608Z,6.5
2022-12-19T10:53:33.096Z,5.699999809
2022-12-19T10:54:33.879Z,4.800000191
2022-12-19T10:55:34.314Z,5.599999905
2022-12-19T10:56:37.977Z,5.300000191
2022-12-19T10:57:36.381Z,5.599999905
2022-12-19T10:58:36.996Z,5.800000191
2022-12-19T10:59:37.518Z,5.199999809
2022-12-19T11:00:38.114Z,5.599999905
2022-12-19T11:01:39.378Z,5
2022-12-19T11:02:41.424Z,4.900000095
2022-12-19T11:03:42.018Z,5
2022-12-19T11:04:42.326Z,5.300000191
2022-12-19T11:05:42.934Z,5.5
2022-12-19T11:06:43.449Z,5.699999809
2022-12-19T11:07:44.156Z,5.199999809
2022-12-19T11:08:44.677Z,4.699999809
2022-12-19T11:09:49.908Z,4.900000095
2022-12-19T11:12:44.969Z,5.800000191
2022-12-19T11:15:27.116Z,5.300000191
2022-12-19T11:16:43.138Z,4.599999905
2022-12-19T11:19:13.300Z,5.599999905
2022-12-19T11:19:41.525Z,5.599999905
2022-12-19T11:21:54.172Z,5.099999905
2022-12-19T11:23:45.704Z,5
2022-12-19T11:29:16.903Z,4.900000095
2022-12-19T11:29:17.226Z,4.800000191
2022-12-19T11:29:32.002Z,5
2022-12-19T11:29:35.182Z,5.5
2022-12-19T11:29:36.579Z,5
2022-12-19T11:29:55.169Z,4.800000191
2022-12-19T11:30:09.324Z,5.599999905
2022-12-19T11:30:09.516Z,4.900000095
2022-12-19T11:30:34.297Z,4.400000095
2022-12-19T11:30:35.458Z,5.300000191
2022-12-19T11:30:47.446Z,5.300000191
2022-12-19T11:31:52.948Z,5
2022-12-19T11:32:32.182Z,5.699999809
2022-12-19T11:32:40.368Z,5.099999905
2022-12-19T11:33:34.558Z,4.900000095
2022-12-19T11:34:35.221Z,5
2022-12-19T11:35:37.029Z,5.300000191
2022-12-19T11:36:36.372Z,4.800000191
2022-12-19T11:37:36.861Z,4.800000191
2022-12-19T11:38:37.406Z,5.400000095